createdAt,value
2019-04-28T00:01:11.242Z,1.60
2019-04-28T00:03:37.298Z,0.90
2019-04-28T00:06:03.470Z,0.90
2019-04-28T00:08:29.638Z,1.17
2019-04-28T00:10:55.842Z,0.80
2019-04-28T00:13:22.517Z,0.60
2019-04-28T00:15:48.700Z,1.33
2019-04-28T00:18:15.766Z,0.80
2019-04-28T00:20:43.844Z,0.60
2019-04-28T00:23:11.922Z,0.70
2019-04-28T00:25:41.098Z,0.80
2019-04-28T00:28:08.010Z,0.70
2019-04-28T00:30:34.182Z,1.10
2019-04-28T00:33:01.798Z,0.80
2019-04-28T00:35:28.058Z,1.30
2019-04-28T00:37:54.246Z,0.90
2019-04-28T00:40:21.750Z,1.13
2019-04-28T00:42:48.126Z,0.63
2019-04-28T00:45:14.497Z,0.70
2019-04-28T00:47:42.623Z,0.80
2019-04-28T00:50:08.758Z,0.70
2019-04-28T00:52:34.934Z,0.67
2019-04-28T00:55:01.309Z,0.87
2019-04-28T00:57:27.615Z,0.70
2019-04-28T00:59:58.215Z,1.07
2019-04-28T01:02:23.758Z,1.00
2019-04-28T01:04:51.410Z,0.90
2019-04-28T01:07:17.713Z,0.97
2019-04-28T01:09:43.911Z,0.80
2019-04-28T01:12:11.219Z,0.70
2019-04-28T01:14:37.665Z,0.87
2019-04-28T01:17:05.771Z,1.27
2019-04-28T01:19:34.106Z,0.90
2019-04-28T01:22:02.192Z,0.93
2019-04-28T01:24:29.761Z,0.80
2019-04-28T01:26:56.262Z,0.90
2019-04-28T01:29:22.434Z,1.50
2019-04-28T01:31:50.546Z,0.87
2019-04-28T01:34:19.862Z,1.27
2019-04-28T01:36:46.606Z,0.70
2019-04-28T01:39:13.098Z,0.60
2019-04-28T01:41:39.738Z,0.90
2019-04-28T01:44:06.045Z,0.73
2019-04-28T01:46:32.337Z,0.97
2019-04-28T01:48:59.865Z,1.13
2019-04-28T01:51:26.188Z,1.17
2019-04-28T01:53:52.384Z,1.10
2019-04-28T01:56:20.343Z,1.13
2019-04-28T01:58:46.528Z,1.00
2019-04-28T02:01:12.727Z,0.90
2019-04-28T02:03:40.467Z,1.13
2019-04-28T02:06:06.774Z,0.83
2019-04-28T02:08:32.962Z,0.90
2019-04-28T02:11:00.166Z,0.87
2019-04-28T02:13:26.527Z,0.90
2019-04-28T02:15:52.721Z,0.63
2019-04-28T02:18:19.937Z,0.60
2019-04-28T02:20:49.359Z,0.70
2019-04-28T02:23:19.703Z,0.70
2019-04-28T02:25:45.914Z,0.73
2019-04-28T02:28:12.090Z,1.17
2019-04-28T02:30:45.459Z,0.87
2019-04-28T02:33:06.285Z,0.80
2019-04-28T02:35:34.218Z,1.13
2019-04-28T02:38:00.442Z,1.27
2019-04-28T02:40:26.624Z,1.50
2019-04-28T02:42:52.787Z,1.30
2019-04-28T02:45:21.745Z,1.43
2019-04-28T02:47:47.874Z,1.10
2019-04-28T02:50:15.955Z,1.20
2019-04-28T02:52:44.065Z,1.60
2019-04-28T02:55:11.299Z,1.00
2019-04-28T02:57:40.423Z,0.90
2019-04-28T03:00:06.144Z,1.00
2019-04-28T03:02:32.476Z,1.60
2019-04-28T03:05:00.290Z,1.77
2019-04-28T03:07:26.737Z,1.20
2019-04-28T03:09:52.909Z,0.60
2019-04-28T03:12:21.573Z,0.90
2019-04-28T03:14:47.086Z,0.97
2019-04-28T03:17:13.255Z,1.13
2019-04-28T03:19:41.524Z,1.23
2019-04-28T03:22:11.172Z,1.47
2019-04-28T03:24:36.040Z,1.90
2019-04-28T03:27:04.123Z,0.90
2019-04-28T03:29:32.230Z,0.90
2019-04-28T03:32:23.250Z,2.13
2019-04-28T03:34:32.321Z,1.07
2019-04-28T03:37:00.350Z,0.90
2019-04-28T03:39:26.198Z,1.60
2019-04-28T03:41:52.376Z,1.80
2019-04-28T03:44:20.610Z,2.27
2019-04-28T03:46:51.028Z,2.13
2019-04-28T03:49:20.999Z,1.97
2019-04-28T03:51:46.443Z,1.83
2019-04-28T03:54:12.610Z,1.50
2019-04-28T03:56:41.112Z,1.73
2019-04-28T03:59:06.861Z,1.87
2019-04-28T04:01:33.034Z,2.20
2019-04-28T04:04:01.247Z,2.53
2019-04-28T04:06:27.224Z,1.53
2019-04-28T04:08:53.398Z,1.50
2019-04-28T04:11:21.473Z,1.57
2019-04-28T04:13:51.382Z,2.23
2019-04-28T04:16:20.663Z,2.30
2019-04-28T04:18:53.206Z,2.80
2019-04-28T04:21:16.935Z,2.63
2019-04-28T04:23:44.843Z,2.20
2019-04-28T04:26:11.687Z,2.30
2019-04-28T04:28:38.205Z,2.53
2019-04-28T04:31:04.378Z,1.60
2019-04-28T04:33:31.172Z,2.67
2019-04-28T04:35:58.135Z,2.47
2019-04-28T04:38:25.218Z,1.97
2019-04-28T04:40:51.609Z,1.87
2019-04-28T04:43:17.976Z,2.50
2019-04-28T04:45:44.151Z,2.10
2019-04-28T04:48:11.659Z,3.37
2019-04-28T04:50:38.142Z,2.90
2019-04-28T04:53:04.306Z,1.83
2019-04-28T04:55:31.178Z,3.00
2019-04-28T04:57:57.370Z,2.90
2019-04-28T05:00:25.441Z,1.90
2019-04-28T05:02:55.351Z,1.90
2019-04-28T05:05:23.529Z,2.30
2019-04-28T05:07:50.726Z,2.03
2019-04-28T05:10:16.970Z,1.47
2019-04-28T05:12:43.174Z,2.10
2019-04-28T05:15:10.418Z,2.40
2019-04-28T05:17:36.730Z,1.53
2019-04-28T05:20:04.944Z,1.73
2019-04-28T05:22:33.022Z,2.43
2019-04-28T05:25:02.367Z,1.57
2019-04-28T05:27:30.045Z,1.83
2019-04-28T05:29:56.855Z,1.73
2019-04-28T05:32:24.502Z,1.50
2019-04-28T05:34:52.855Z,1.33
2019-04-28T05:37:19.476Z,1.93
2019-04-28T05:39:46.765Z,1.47
2019-04-28T05:42:12.969Z,1.10
2019-04-28T05:44:40.737Z,2.67
2019-04-28T05:47:07.125Z,2.03
2019-04-28T05:49:35.335Z,2.10
2019-04-28T05:52:03.409Z,2.13
2019-04-28T05:54:31.565Z,1.30
2019-04-28T05:56:57.802Z,1.10
2019-04-28T05:59:25.882Z,2.20
2019-04-28T06:01:54.019Z,1.53
2019-04-28T06:04:21.723Z,1.93
2019-04-28T06:06:49.810Z,1.53
2019-04-28T06:09:17.886Z,1.10
2019-04-28T06:11:44.079Z,1.80
2019-04-28T06:14:10.250Z,1.83
2019-04-28T06:16:36.426Z,2.17
2019-04-28T06:19:02.826Z,2.30
2019-04-28T06:21:29.054Z,1.70
2019-04-28T06:23:55.330Z,1.77
2019-04-28T06:26:21.791Z,1.67
2019-04-28T06:28:48.065Z,1.33
2019-04-28T06:31:14.334Z,2.07
2019-04-28T06:33:40.543Z,1.80
2019-04-28T06:36:06.717Z,1.97
2019-04-28T06:38:32.899Z,1.47
2019-04-28T06:40:59.175Z,2.07
2019-04-28T06:43:25.354Z,4.13
2019-04-28T06:45:51.526Z,3.83
2019-04-28T06:48:17.737Z,3.83
2019-04-28T06:50:43.909Z,3.90
2019-04-28T06:53:10.083Z,3.70
2019-04-28T06:55:36.339Z,2.87
2019-04-28T06:58:02.462Z,2.97
2019-04-28T07:00:28.644Z,2.40
2019-04-28T07:02:54.849Z,2.53
2019-04-28T07:05:21.028Z,2.00
2019-04-28T07:07:47.207Z,1.90
2019-04-28T07:10:13.515Z,2.70
2019-04-28T07:12:39.674Z,2.00
2019-04-28T07:15:06.239Z,2.50
2019-04-28T07:17:32.510Z,2.70
2019-04-28T07:20:00.696Z,2.50
2019-04-28T07:22:28.775Z,2.10
2019-04-28T07:24:54.978Z,2.27
2019-04-28T07:27:21.558Z,3.50
2019-04-28T07:29:47.729Z,3.90
2019-04-28T07:32:14.109Z,4.13
2019-04-28T07:34:40.285Z,3.87
2019-04-28T07:37:06.562Z,5.80
2019-04-28T07:39:32.774Z,4.47
2019-04-28T07:41:58.946Z,4.53
2019-04-28T07:44:25.114Z,3.60
2019-04-28T07:46:51.324Z,4.97
2019-04-28T07:49:17.494Z,4.57
2019-04-28T07:51:45.570Z,5.80
2019-04-28T07:54:13.678Z,6.20
2019-04-28T07:56:39.851Z,5.33
2019-04-28T07:59:06.023Z,8.40
2019-04-28T08:01:32.402Z,12.40
2019-04-28T08:03:58.579Z,10.83
2019-04-28T08:06:26.919Z,6.77
2019-04-28T08:08:52.839Z,5.13
2019-04-28T08:11:19.110Z,5.13
2019-04-28T08:13:45.282Z,7.23
2019-04-28T08:16:11.564Z,4.57
2019-04-28T08:18:37.737Z,2.80
2019-04-28T08:21:04.014Z,5.83
2019-04-28T08:23:30.209Z,3.90
2019-04-28T08:25:56.382Z,3.70
2019-04-28T08:28:23.788Z,2.37
2019-04-28T08:30:50.078Z,3.40
2019-04-28T08:33:18.157Z,3.70
2019-04-28T08:35:44.330Z,2.87
2019-04-28T08:38:10.541Z,3.70
2019-04-28T08:40:36.704Z,2.73
2019-04-28T08:43:02.879Z,2.97
2019-04-28T08:45:29.115Z,4.30
2019-04-28T08:47:57.947Z,4.63
2019-04-28T08:50:23.279Z,3.60
2019-04-28T08:52:49.486Z,5.13
2019-04-28T08:55:15.749Z,4.20
2019-04-28T08:57:41.926Z,4.07
2019-04-28T09:00:09.948Z,4.30
2019-04-28T09:02:36.215Z,4.87
2019-04-28T09:05:03.486Z,4.27
2019-04-28T09:07:29.793Z,3.87
2019-04-28T09:09:55.974Z,3.37
2019-04-28T09:12:22.142Z,3.40
2019-04-28T09:14:48.452Z,3.30
2019-04-28T09:17:14.626Z,4.10
2019-04-28T09:19:42.433Z,4.37
2019-04-28T09:22:08.808Z,4.30
2019-04-28T09:24:34.990Z,4.47
2019-04-28T09:27:01.158Z,4.57
2019-04-28T09:29:29.063Z,4.43
2019-04-28T09:31:55.247Z,4.10
2019-04-28T09:34:28.201Z,5.33
2019-04-28T09:36:49.434Z,4.23
2019-04-28T09:39:17.514Z,3.90
2019-04-28T09:41:45.597Z,3.90
2019-04-28T09:44:13.706Z,4.10
2019-04-28T09:46:41.790Z,4.93
2019-04-28T09:49:07.972Z,5.10
2019-04-28T09:51:35.251Z,5.10
2019-04-28T09:54:01.536Z,4.80
2019-04-28T09:56:27.707Z,4.40
2019-04-28T09:58:53.893Z,4.30
2019-04-28T10:01:20.086Z,4.60
2019-04-28T10:03:46.259Z,4.37
2019-04-28T10:06:12.634Z,5.33
2019-04-28T10:08:38.807Z,4.57
2019-04-28T10:11:05.007Z,4.80
2019-04-28T10:13:31.306Z,4.70
2019-04-28T10:15:57.479Z,3.90
2019-04-28T10:18:23.650Z,4.43
2019-04-28T10:20:49.855Z,4.50
2019-04-28T10:23:16.026Z,4.37
2019-04-28T10:25:43.800Z,4.93
2019-04-28T10:28:09.995Z,5.10
2019-04-28T10:30:37.334Z,4.13
2019-04-28T10:33:03.502Z,5.50
2019-04-28T10:35:29.698Z,4.57
2019-04-28T10:37:55.866Z,5.10
2019-04-28T10:40:27.778Z,4.87
2019-04-28T10:42:53.979Z,4.40
2019-04-28T10:45:22.070Z,4.70
2019-04-28T10:47:48.241Z,4.87
2019-04-28T10:50:14.646Z,5.60
2019-04-28T10:52:40.819Z,4.47
2019-04-28T10:55:06.989Z,4.70
2019-04-28T10:57:33.198Z,5.53
2019-04-28T10:59:59.362Z,5.83
2019-04-28T11:02:25.542Z,6.40
2019-04-28T11:04:53.651Z,6.73
2019-04-28T11:07:20.319Z,6.57
2019-04-28T11:09:46.502Z,6.90
2019-04-28T11:12:14.798Z,6.73
2019-04-28T11:14:41.177Z,7.23
2019-04-28T11:17:07.442Z,6.70
2019-04-28T11:19:33.830Z,6.77
2019-04-28T11:22:00.030Z,6.83
2019-04-28T11:24:26.223Z,7.37
2019-04-28T11:26:52.405Z,7.53
2019-04-28T11:29:18.578Z,9.20
2019-04-28T11:31:45.391Z,8.50
2019-04-28T11:34:13.494Z,7.90
2019-04-28T11:36:39.871Z,8.77
2019-04-28T11:39:06.943Z,8.40
2019-04-28T11:41:33.143Z,7.20
2019-04-28T11:43:59.314Z,8.17
2019-04-28T11:46:26.790Z,7.70
2019-04-28T11:48:52.989Z,8.37
2019-04-28T11:51:19.257Z,7.40
2019-04-28T11:53:45.438Z,8.20
2019-04-28T11:56:11.738Z,8.13
2019-04-28T11:58:37.916Z,8.83
2019-04-28T12:01:06.095Z,7.57
2019-04-28T12:03:32.294Z,8.00
2019-04-28T12:05:58.464Z,8.63
2019-04-28T12:08:24.745Z,8.27
2019-04-28T12:10:52.962Z,7.93
2019-04-28T12:13:21.042Z,7.13
2019-04-28T12:15:49.126Z,7.60
2019-04-28T12:18:17.236Z,8.20
2019-04-28T12:20:43.514Z,7.33
2019-04-28T12:23:09.994Z,6.27
2019-04-28T12:25:36.294Z,6.80
2019-04-28T12:28:02.462Z,6.70
2019-04-28T12:30:28.638Z,7.67
2019-04-28T12:32:56.198Z,7.73
2019-04-28T12:35:22.374Z,7.13
2019-04-28T12:37:48.543Z,7.77
2019-04-28T12:40:14.738Z,6.83
2019-04-28T12:42:40.902Z,6.57
2019-04-28T12:45:07.878Z,6.70
2019-04-28T12:47:34.077Z,6.50
2019-04-28T12:50:02.158Z,5.90
2019-04-28T12:52:28.338Z,5.83
2019-04-28T12:54:54.629Z,7.30
2019-04-28T12:57:20.899Z,7.13
2019-04-28T12:59:48.970Z,6.47
2019-04-28T13:02:17.154Z,7.00
2019-04-28T13:04:45.239Z,6.90
2019-04-28T13:07:11.412Z,6.43
2019-04-28T13:09:37.627Z,7.23
2019-04-28T13:12:04.504Z,7.97
2019-04-28T13:14:30.670Z,8.47
2019-04-28T13:16:56.949Z,8.00
2019-04-28T13:19:23.125Z,7.67
2019-04-28T13:21:49.298Z,6.83
2019-04-28T13:24:15.678Z,6.43
2019-04-28T13:26:41.853Z,7.57
2019-04-28T13:29:08.018Z,6.73
2019-04-28T13:31:34.228Z,6.47
2019-04-28T13:34:01.846Z,4.30
2019-04-28T13:36:28.038Z,4.27
2019-04-28T13:38:55.749Z,5.30
2019-04-28T13:41:21.918Z,5.17
2019-04-28T13:43:48.092Z,6.07
2019-04-28T13:46:14.386Z,5.53
2019-04-28T13:48:40.559Z,5.70
2019-04-28T13:51:06.743Z,6.40
2019-04-28T13:53:33.015Z,6.50
2019-04-28T13:56:01.095Z,5.60
2019-04-28T13:58:29.268Z,5.23
2019-04-28T14:00:57.479Z,6.50
2019-04-28T14:03:25.558Z,5.30
2019-04-28T14:05:53.655Z,5.87
2019-04-28T14:08:19.998Z,5.90
2019-04-28T14:10:46.127Z,5.27
2019-04-28T14:13:12.400Z,4.70
2019-04-28T14:15:38.774Z,5.20
2019-04-28T14:18:05.098Z,5.17
2019-04-28T14:20:31.247Z,4.93
2019-04-28T14:22:57.558Z,5.03
2019-04-28T14:25:23.806Z,4.60
2019-04-28T14:27:49.978Z,4.90
2019-04-28T14:30:16.331Z,4.30
2019-04-28T14:32:42.537Z,4.50
2019-04-28T14:35:09.146Z,4.03
2019-04-28T14:37:35.427Z,4.63
2019-04-28T14:40:03.923Z,4.10
2019-04-28T14:42:30.078Z,4.07
2019-04-28T14:44:56.283Z,3.70
2019-04-28T14:47:22.454Z,3.70
2019-04-28T14:49:49.928Z,4.33
2019-04-28T14:52:16.300Z,3.70
2019-04-28T14:54:42.478Z,2.93
2019-04-28T14:57:08.650Z,2.70
2019-04-28T14:59:34.854Z,3.10
2019-04-28T15:02:02.924Z,4.23
2019-04-28T15:04:31.104Z,4.77
2019-04-28T15:06:59.709Z,4.60
2019-04-28T15:09:26.080Z,3.40
2019-04-28T15:11:54.157Z,5.00
2019-04-28T15:14:20.446Z,5.50
2019-04-28T15:16:46.620Z,4.53
2019-04-28T15:19:12.802Z,4.07
2019-04-28T15:21:39.057Z,3.07
2019-04-28T15:24:05.172Z,2.43
2019-04-28T15:26:31.338Z,2.30
2019-04-28T15:28:57.542Z,1.70
2019-04-28T15:31:23.710Z,3.37
2019-04-28T15:33:49.899Z,3.33
2019-04-28T15:36:16.463Z,3.27
2019-04-28T15:38:42.632Z,2.83
2019-04-28T15:41:20.919Z,2.17
2019-04-28T15:43:36.808Z,2.90
2019-04-28T15:46:02.974Z,2.43
2019-04-28T15:48:29.145Z,2.87
2019-04-28T15:50:55.381Z,2.10
2019-04-28T15:53:21.562Z,3.03
2019-04-28T15:55:49.670Z,2.43
2019-04-28T15:58:17.814Z,2.87
2019-04-28T16:00:43.954Z,2.47
2019-04-28T16:03:10.130Z,2.60
2019-04-28T16:05:36.410Z,2.40
2019-04-28T16:08:02.690Z,2.30
2019-04-28T16:10:28.866Z,2.80
2019-04-28T16:12:55.146Z,3.40
2019-04-28T16:15:21.323Z,2.40
2019-04-28T16:17:47.508Z,3.07
2019-04-28T16:20:13.906Z,3.17
2019-04-28T16:22:40.082Z,3.03
2019-04-28T16:25:06.264Z,3.57
2019-04-28T16:27:32.467Z,2.93
2019-04-28T16:29:58.646Z,2.30
2019-04-28T16:32:24.814Z,3.10
2019-04-28T16:34:51.014Z,2.87
2019-04-28T16:37:17.458Z,2.93
2019-04-28T16:39:43.735Z,2.80
2019-04-28T16:42:11.331Z,2.93
2019-04-28T16:44:40.714Z,2.23
2019-04-28T16:47:06.882Z,2.47
2019-04-28T16:49:33.084Z,2.70
2019-04-28T16:51:59.261Z,2.70
2019-04-28T16:54:25.432Z,3.20
2019-04-28T16:56:53.621Z,4.03
2019-04-28T16:59:19.902Z,4.53
2019-04-28T17:01:48.247Z,4.10
2019-04-28T17:04:14.599Z,3.50
2019-04-28T17:06:40.774Z,3.30
2019-04-28T17:09:06.947Z,3.73
2019-04-28T17:11:33.218Z,4.27
2019-04-28T17:13:59.394Z,4.47
2019-04-28T17:16:25.870Z,4.27
2019-04-28T17:18:52.066Z,4.30
2019-04-28T17:21:18.258Z,4.63
2019-04-28T17:23:44.427Z,4.77
2019-04-28T17:26:11.416Z,4.00
2019-04-28T17:28:37.810Z,4.50
2019-04-28T17:31:04.390Z,4.33
2019-04-28T17:33:30.670Z,4.30
2019-04-28T17:35:56.854Z,4.40
2019-04-28T17:38:24.245Z,3.40
2019-04-28T17:40:50.475Z,3.07
2019-04-28T17:43:16.647Z,3.33
2019-04-28T17:45:42.819Z,2.80
2019-04-28T17:48:10.921Z,3.60
2019-04-28T17:50:37.354Z,2.73
2019-04-28T17:53:03.971Z,2.73
2019-04-28T17:55:30.265Z,3.47
2019-04-28T17:57:56.830Z,3.10
2019-04-28T18:00:24.905Z,2.67
2019-04-28T18:02:53.089Z,3.30
2019-04-28T18:05:21.162Z,2.90
2019-04-28T18:07:49.246Z,4.67
2019-04-28T18:10:15.455Z,4.10
2019-04-28T18:12:41.638Z,3.43
2019-04-28T18:15:09.710Z,3.83
2019-04-28T18:17:37.890Z,4.87
2019-04-28T18:20:04.778Z,4.40
2019-04-28T18:22:30.954Z,4.43
2019-04-28T18:24:57.149Z,4.93
2019-04-28T18:27:23.322Z,5.33
2019-04-28T18:29:49.498Z,5.10
2019-04-28T18:32:15.707Z,4.57
2019-04-28T18:34:43.788Z,4.87
2019-04-28T18:37:11.858Z,4.43
2019-04-28T18:39:41.400Z,4.77
2019-04-28T18:42:09.475Z,4.00
2019-04-28T18:44:35.646Z,4.40
2019-04-28T18:47:01.837Z,4.23
2019-04-28T18:49:28.014Z,4.23
2019-04-28T18:51:54.195Z,3.77
2019-04-28T18:54:20.402Z,4.00
2019-04-28T18:56:47.710Z,3.63
2019-04-28T18:59:13.908Z,4.17
2019-04-28T19:01:41.966Z,4.83
2019-04-28T19:04:08.139Z,4.93
2019-04-28T19:06:34.412Z,4.53
2019-04-28T19:09:02.511Z,5.03
2019-04-28T19:11:30.692Z,5.17
2019-04-28T19:13:58.778Z,5.77
2019-04-28T19:16:27.062Z,6.00
2019-04-28T19:18:55.146Z,5.47
2019-04-28T19:21:21.317Z,6.00
2019-04-28T19:23:47.543Z,6.27
2019-04-28T19:26:13.703Z,5.33
2019-04-28T19:28:39.878Z,4.83
2019-04-28T19:31:06.069Z,4.97
2019-04-28T19:33:32.246Z,4.33
2019-04-28T19:35:58.416Z,4.17
2019-04-28T19:38:24.714Z,4.10
2019-04-28T19:40:52.167Z,5.20
2019-04-28T19:43:18.333Z,4.63
2019-04-28T19:45:46.148Z,4.73
2019-04-28T19:48:12.322Z,6.23
2019-04-28T19:50:38.494Z,4.30
2019-04-28T19:53:04.877Z,4.53
2019-04-28T19:55:32.991Z,4.67
2019-04-28T19:58:01.022Z,4.93
2019-04-28T20:00:29.126Z,5.20
2019-04-28T20:02:55.303Z,5.23
2019-04-28T20:05:21.477Z,5.10
2019-04-28T20:07:47.758Z,6.17
2019-04-28T20:10:13.924Z,6.37
2019-04-28T20:12:40.098Z,5.97
2019-04-28T20:15:06.798Z,6.37
2019-04-28T20:17:32.970Z,6.83
2019-04-28T20:19:59.142Z,6.60
2019-04-28T20:22:25.826Z,5.90
2019-04-28T20:24:52.202Z,6.67
2019-04-28T20:27:18.377Z,5.10
2019-04-28T20:29:44.586Z,5.77
2019-04-28T20:32:10.774Z,6.07
2019-04-28T20:34:37.448Z,7.17
2019-04-28T20:37:05.564Z,6.80
2019-04-28T20:39:32.929Z,7.33
2019-04-28T20:42:02.368Z,6.67
2019-04-28T20:44:28.645Z,5.80
2019-04-28T20:46:54.807Z,6.70
2019-04-28T20:49:20.974Z,7.27
2019-04-28T20:51:47.306Z,7.17
2019-04-28T20:54:13.580Z,7.47
2019-04-28T20:56:39.746Z,7.20
2019-04-28T20:59:05.946Z,8.23
2019-04-28T21:01:32.129Z,7.93
2019-04-28T21:03:58.324Z,7.70
2019-04-28T21:06:24.508Z,8.43
2019-04-28T21:08:50.678Z,8.43
2019-04-28T21:11:16.859Z,8.83
2019-04-28T21:13:43.054Z,9.50
2019-04-28T21:16:09.237Z,8.27
2019-04-28T21:18:35.440Z,9.43
2019-04-28T21:21:01.721Z,8.17
2019-04-28T21:23:27.898Z,8.80
2019-04-28T21:25:54.065Z,9.27
2019-04-28T21:28:20.266Z,8.87
2019-04-28T21:30:46.435Z,8.37
2019-04-28T21:33:12.604Z,10.00
2019-04-28T21:35:38.810Z,9.80
2019-04-28T21:38:04.974Z,9.63
2019-04-28T21:40:31.451Z,11.30
2019-04-28T21:42:58.951Z,10.87
2019-04-28T21:45:27.021Z,10.63
2019-04-28T21:47:53.190Z,9.63
2019-04-28T21:50:19.385Z,11.90
2019-04-28T21:52:45.561Z,11.10
2019-04-28T21:55:11.735Z,11.67
2019-04-28T21:57:37.930Z,11.67
2019-04-28T22:00:05.751Z,12.40
2019-04-28T22:02:31.890Z,11.97
2019-04-28T22:04:58.092Z,12.17
2019-04-28T22:07:24.266Z,12.47
2019-04-28T22:09:50.446Z,11.73
2019-04-28T22:12:16.644Z,11.30
2019-04-28T22:14:42.831Z,11.10
2019-04-28T22:17:09.003Z,10.87
2019-04-28T22:19:35.202Z,11.23
2019-04-28T22:22:01.382Z,11.67
2019-04-28T22:24:29.474Z,10.57
2019-04-28T22:26:55.728Z,10.93
2019-04-28T22:29:21.958Z,10.43
2019-04-28T22:31:48.138Z,10.20
2019-04-28T22:34:14.722Z,10.73
2019-04-28T22:36:42.604Z,10.47
2019-04-28T22:39:08.779Z,10.50
2019-04-28T22:41:35.062Z,9.10
2019-04-28T22:44:01.998Z,10.07
2019-04-28T22:46:28.161Z,9.50
2019-04-28T22:48:56.262Z,10.53
2019-04-28T22:51:22.430Z,10.20
2019-04-28T22:53:48.814Z,12.10
2019-04-28T22:56:16.923Z,10.73
2019-04-28T22:58:45.012Z,12.30
2019-04-28T23:01:13.078Z,11.90
2019-04-28T23:03:41.189Z,13.53
2019-04-28T23:06:10.370Z,12.80
2019-04-28T23:08:35.436Z,13.00
2019-04-28T23:11:01.645Z,12.10
2019-04-28T23:13:27.814Z,13.10
2019-04-28T23:15:53.994Z,14.60
2019-04-28T23:18:20.398Z,14.93
2019-04-28T23:20:48.479Z,14.20
2019-04-28T23:23:14.851Z,14.03
2019-04-28T23:25:41.162Z,15.10
2019-04-28T23:28:07.330Z,14.37
2019-04-28T23:30:36.005Z,14.80
2019-04-28T23:33:02.606Z,12.77
2019-04-28T23:35:28.786Z,11.93
2019-04-28T23:37:54.959Z,9.90
2019-04-28T23:40:21.240Z,9.87
2019-04-28T23:42:49.322Z,9.60
2019-04-28T23:45:16.582Z,8.93
2019-04-28T23:47:42.875Z,9.67
2019-04-28T23:50:10.543Z,10.73
2019-04-28T23:52:38.614Z,9.90
2019-04-28T23:55:07.211Z,9.03
2019-04-28T23:57:33.386Z,10.03
2019-04-28T23:59:59.553Z,9.50
